sensor_id;sensor_type;location;lat;lon;timestamp;temperature;humidity
73777;DHT22;62088;50.240;2.696;2023-01-09T00:01:33;6.20;84.80
73777;DHT22;62088;50.240;2.696;2023-01-09T00:04:01;6.10;84.80
73777;DHT22;62088;50.240;2.696;2023-01-09T00:06:29;6.20;84.90
73777;DHT22;62088;50.240;2.696;2023-01-09T00:08:56;6.20;85.00
73777;DHT22;62088;50.240;2.696;2023-01-09T00:11:24;6.20;85.10
73777;DHT22;62088;50.240;2.696;2023-01-09T00:13:51;6.20;85.10
73777;DHT22;62088;50.240;2.696;2023-01-09T00:22:24;6.20;85.30
73777;DHT22;62088;50.240;2.696;2023-01-09T00:24:51;6.20;85.20
73777;DHT22;62088;50.240;2.696;2023-01-09T00:27:19;6.20;85.30
73777;DHT22;62088;50.240;2.696;2023-01-09T00:29:46;6.20;85.30
73777;DHT22;62088;50.240;2.696;2023-01-09T01:05:31;6.20;85.20
73777;DHT22;62088;50.240;2.696;2023-01-09T01:08:18;6.20;85.20
73777;DHT22;62088;50.240;2.696;2023-01-09T01:10:49;6.20;85.20
73777;DHT22;62088;50.240;2.696;2023-01-09T01:13:16;6.20;85.30
73777;DHT22;62088;50.240;2.696;2023-01-09T01:15:45;6.20;85.30
73777;DHT22;62088;50.240;2.696;2023-01-09T01:21:07;6.20;85.30
73777;DHT22;62088;50.240;2.696;2023-01-09T01:23:35;6.30;85.20
73777;DHT22;62088;50.240;2.696;2023-01-09T01:29:03;6.30;85.20
73777;DHT22;62088;50.240;2.696;2023-01-09T01:31:30;6.30;85.10
73777;DHT22;62088;50.240;2.696;2023-01-09T01:45:10;6.30;85.10
73777;DHT22;62088;50.240;2.696;2023-01-09T01:56:27;6.20;84.80
73777;DHT22;62088;50.240;2.696;2023-01-09T02:01:44;6.20;84.70
73777;DHT22;62088;50.240;2.696;2023-01-09T02:07:22;6.20;84.70
73777;DHT22;62088;50.240;2.696;2023-01-09T02:09:49;6.20;84.70
73777;DHT22;62088;50.240;2.696;2023-01-09T02:15:19;6.20;84.70
73777;DHT22;62088;50.240;2.696;2023-01-09T02:44:19;6.40;84.70
73777;DHT22;62088;50.240;2.696;2023-01-09T02:46:46;6.40;84.70
73777;DHT22;62088;50.240;2.696;2023-01-09T02:49:14;6.40;84.70
73777;DHT22;62088;50.240;2.696;2023-01-09T02:54:41;6.50;84.70
73777;DHT22;62088;50.240;2.696;2023-01-09T02:57:14;6.50;84.60
73777;DHT22;62088;50.240;2.696;2023-01-09T03:05:38;6.60;84.50
73777;DHT22;62088;50.240;2.696;2023-01-09T03:08:45;6.60;84.40
73777;DHT22;62088;50.240;2.696;2023-01-09T03:11:14;6.70;84.30
73777;DHT22;62088;50.240;2.696;2023-01-09T03:16:55;6.70;84.20
73777;DHT22;62088;50.240;2.696;2023-01-09T03:19:26;6.70;84.30
73777;DHT22;62088;50.240;2.696;2023-01-09T04:31:15;6.80;85.20
73777;DHT22;62088;50.240;2.696;2023-01-09T04:33:42;6.80;85.30
73777;DHT22;62088;50.240;2.696;2023-01-09T04:36:10;6.80;85.40
73777;DHT22;62088;50.240;2.696;2023-01-09T04:38:37;6.90;85.50
73777;DHT22;62088;50.240;2.696;2023-01-09T04:41:05;6.90;85.60
73777;DHT22;62088;50.240;2.696;2023-01-09T04:43:32;6.90;85.70
73777;DHT22;62088;50.240;2.696;2023-01-09T04:45:59;6.90;85.70
73777;DHT22;62088;50.240;2.696;2023-01-09T04:48:28;6.90;85.80
73777;DHT22;62088;50.240;2.696;2023-01-09T04:50:55;6.90;85.80
73777;DHT22;62088;50.240;2.696;2023-01-09T04:53:22;6.90;85.80
73777;DHT22;62088;50.240;2.696;2023-01-09T04:55:49;6.90;85.80
73777;DHT22;62088;50.240;2.696;2023-01-09T04:58:17;6.90;85.80
73777;DHT22;62088;50.240;2.696;2023-01-09T05:00:44;6.90;85.80
73777;DHT22;62088;50.240;2.696;2023-01-09T05:03:12;6.90;85.90
73777;DHT22;62088;50.240;2.696;2023-01-09T05:05:40;6.90;85.90
73777;DHT22;62088;50.240;2.696;2023-01-09T05:08:07;6.90;85.90
73777;DHT22;62088;50.240;2.696;2023-01-09T05:10:34;6.90;85.90
73777;DHT22;62088;50.240;2.696;2023-01-09T05:13:02;6.90;85.90
73777;DHT22;62088;50.240;2.696;2023-01-09T05:15:29;6.90;85.90
73777;DHT22;62088;50.240;2.696;2023-01-09T05:49:15;6.90;86.10
73777;DHT22;62088;50.240;2.696;2023-01-09T06:14:11;6.90;86.50
73777;DHT22;62088;50.240;2.696;2023-01-09T06:16:38;6.90;86.50
73777;DHT22;62088;50.240;2.696;2023-01-09T06:19:06;6.90;86.50
73777;DHT22;62088;50.240;2.696;2023-01-09T06:21:33;6.90;86.40
73777;DHT22;62088;50.240;2.696;2023-01-09T06:24:00;6.90;86.40
73777;DHT22;62088;50.240;2.696;2023-01-09T06:32:19;6.90;86.20
73777;DHT22;62088;50.240;2.696;2023-01-09T06:34:47;6.80;86.10
73777;DHT22;62088;50.240;2.696;2023-01-09T06:43:12;6.80;85.90
73777;DHT22;62088;50.240;2.696;2023-01-09T06:45:44;6.70;85.80
73777;DHT22;62088;50.240;2.696;2023-01-09T06:48:11;6.70;85.80
73777;DHT22;62088;50.240;2.696;2023-01-09T06:50:38;6.70;85.90
73777;DHT22;62088;50.240;2.696;2023-01-09T06:53:06;6.70;86.00
73777;DHT22;62088;50.240;2.696;2023-01-09T06:55:34;6.70;86.00
73777;DHT22;62088;50.240;2.696;2023-01-09T06:58:01;6.70;86.10
73777;DHT22;62088;50.240;2.696;2023-01-09T07:00:28;6.70;86.10
73777;DHT22;62088;50.240;2.696;2023-01-09T07:02:57;6.70;86.10
73777;DHT22;62088;50.240;2.696;2023-01-09T07:05:24;6.70;86.20
73777;DHT22;62088;50.240;2.696;2023-01-09T07:07:51;6.70;86.30
73777;DHT22;62088;50.240;2.696;2023-01-09T07:10:19;6.70;86.30
73777;DHT22;62088;50.240;2.696;2023-01-09T07:12:46;6.60;86.30
73777;DHT22;62088;50.240;2.696;2023-01-09T07:15:13;6.70;86.30
73777;DHT22;62088;50.240;2.696;2023-01-09T07:17:40;6.60;86.20
73777;DHT22;62088;50.240;2.696;2023-01-09T07:20:08;6.70;86.30
73777;DHT22;62088;50.240;2.696;2023-01-09T07:22:35;6.60;86.20
73777;DHT22;62088;50.240;2.696;2023-01-09T07:25:03;6.60;86.20
73777;DHT22;62088;50.240;2.696;2023-01-09T07:27:30;6.60;86.10
73777;DHT22;62088;50.240;2.696;2023-01-09T07:29:57;6.60;86.10
73777;DHT22;62088;50.240;2.696;2023-01-09T07:35:24;6.50;86.00
73777;DHT22;62088;50.240;2.696;2023-01-09T07:37:51;6.50;86.10
73777;DHT22;62088;50.240;2.696;2023-01-09T07:40:18;6.50;86.10
73777;DHT22;62088;50.240;2.696;2023-01-09T07:42:46;6.50;86.10
73777;DHT22;62088;50.240;2.696;2023-01-09T07:45:15;6.40;86.10
73777;DHT22;62088;50.240;2.696;2023-01-09T07:47:47;6.40;86.10
73777;DHT22;62088;50.240;2.696;2023-01-09T07:50:14;6.40;86.10
73777;DHT22;62088;50.240;2.696;2023-01-09T07:52:44;6.40;86.10
73777;DHT22;62088;50.240;2.696;2023-01-09T07:55:13;6.40;86.20
73777;DHT22;62088;50.240;2.696;2023-01-09T07:57:47;6.40;86.20
73777;DHT22;62088;50.240;2.696;2023-01-09T08:00:15;6.40;86.30
73777;DHT22;62088;50.240;2.696;2023-01-09T08:02:43;6.40;86.30
73777;DHT22;62088;50.240;2.696;2023-01-09T08:05:10;6.40;86.40
73777;DHT22;62088;50.240;2.696;2023-01-09T08:07:40;6.40;86.40
73777;DHT22;62088;50.240;2.696;2023-01-09T08:10:09;6.40;86.50
73777;DHT22;62088;50.240;2.696;2023-01-09T08:12:36;6.40;86.50
73777;DHT22;62088;50.240;2.696;2023-01-09T08:15:04;6.40;86.50
73777;DHT22;62088;50.240;2.696;2023-01-09T08:17:31;6.40;86.60
73777;DHT22;62088;50.240;2.696;2023-01-09T08:19:58;6.40;86.60
73777;DHT22;62088;50.240;2.696;2023-01-09T08:22:25;6.40;86.60
73777;DHT22;62088;50.240;2.696;2023-01-09T08:24:52;6.40;86.60
73777;DHT22;62088;50.240;2.696;2023-01-09T08:27:19;6.40;86.60
73777;DHT22;62088;50.240;2.696;2023-01-09T08:29:47;6.50;86.70
73777;DHT22;62088;50.240;2.696;2023-01-09T08:32:14;6.40;86.70
73777;DHT22;62088;50.240;2.696;2023-01-09T08:34:41;6.50;86.80
73777;DHT22;62088;50.240;2.696;2023-01-09T08:37:11;6.40;86.80
73777;DHT22;62088;50.240;2.696;2023-01-09T08:39:38;6.40;86.80
73777;DHT22;62088;50.240;2.696;2023-01-09T08:42:07;6.40;86.80
73777;DHT22;62088;50.240;2.696;2023-01-09T08:54:19;6.40;86.60
73777;DHT22;62088;50.240;2.696;2023-01-09T08:56:46;6.40;86.60
73777;DHT22;62088;50.240;2.696;2023-01-09T08:59:15;6.40;86.60
73777;DHT22;62088;50.240;2.696;2023-01-09T09:01:42;6.40;86.60
73777;DHT22;62088;50.240;2.696;2023-01-09T09:04:10;6.40;86.60
73777;DHT22;62088;50.240;2.696;2023-01-09T09:06:37;6.40;86.70
73777;DHT22;62088;50.240;2.696;2023-01-09T09:09:05;6.40;86.70
73777;DHT22;62088;50.240;2.696;2023-01-09T09:11:33;6.40;86.70
73777;DHT22;62088;50.240;2.696;2023-01-09T09:14:01;6.40;86.60
73777;DHT22;62088;50.240;2.696;2023-01-09T09:16:51;6.40;86.70
73777;DHT22;62088;50.240;2.696;2023-01-09T09:19:18;6.40;86.70
73777;DHT22;62088;50.240;2.696;2023-01-09T09:21:46;6.40;86.70
73777;DHT22;62088;50.240;2.696;2023-01-09T09:24:13;6.40;86.70
73777;DHT22;62088;50.240;2.696;2023-01-09T09:26:41;6.40;86.70
73777;DHT22;62088;50.240;2.696;2023-01-09T09:29:10;6.40;86.70
73777;DHT22;62088;50.240;2.696;2023-01-09T09:37:59;6.40;86.70
73777;DHT22;62088;50.240;2.696;2023-01-09T10:36:42;6.70;87.00
73777;DHT22;62088;50.240;2.696;2023-01-09T10:39:19;6.70;87.00
73777;DHT22;62088;50.240;2.696;2023-01-09T10:42:21;6.70;86.90
73777;DHT22;62088;50.240;2.696;2023-01-09T10:44:57;6.70;86.90
73777;DHT22;62088;50.240;2.696;2023-01-09T10:47:32;6.70;86.80
73777;DHT22;62088;50.240;2.696;2023-01-09T10:50:20;6.70;86.80
73777;DHT22;62088;50.240;2.696;2023-01-09T10:52:53;6.70;86.80
73777;DHT22;62088;50.240;2.696;2023-01-09T10:55:38;6.70;86.80
73777;DHT22;62088;50.240;2.696;2023-01-09T10:58:12;6.70;86.80
73777;DHT22;62088;50.240;2.696;2023-01-09T11:00:41;6.70;86.80
73777;DHT22;62088;50.240;2.696;2023-01-09T11:03:16;6.70;86.70
73777;DHT22;62088;50.240;2.696;2023-01-09T11:05:53;6.70;86.70
73777;DHT22;62088;50.240;2.696;2023-01-09T11:10:59;6.70;86.60
73777;DHT22;62088;50.240;2.696;2023-01-09T11:13:29;6.70;86.60
73777;DHT22;62088;50.240;2.696;2023-01-09T11:16:24;6.80;86.60
73777;DHT22;62088;50.240;2.696;2023-01-09T11:18:55;6.80;86.60
73777;DHT22;62088;50.240;2.696;2023-01-09T11:21:38;6.90;86.80
73777;DHT22;62088;50.240;2.696;2023-01-09T11:26:49;7.00;86.90
73777;DHT22;62088;50.240;2.696;2023-01-09T11:29:19;7.00;86.90
73777;DHT22;62088;50.240;2.696;2023-01-09T11:31:55;7.10;87.00
73777;DHT22;62088;50.240;2.696;2023-01-09T11:34:29;7.20;87.00
73777;DHT22;62088;50.240;2.696;2023-01-09T11:37:24;7.30;86.90
73777;DHT22;62088;50.240;2.696;2023-01-09T11:39:53;7.30;86.70
73777;DHT22;62088;50.240;2.696;2023-01-09T11:42:25;7.30;86.60
73777;DHT22;62088;50.240;2.696;2023-01-09T11:47:45;7.30;86.50
73777;DHT22;62088;50.240;2.696;2023-01-09T11:50:18;7.30;86.50
73777;DHT22;62088;50.240;2.696;2023-01-09T11:53:16;7.30;86.50
73777;DHT22;62088;50.240;2.696;2023-01-09T11:55:46;7.30;86.50
73777;DHT22;62088;50.240;2.696;2023-01-09T11:58:16;7.30;86.50
73777;DHT22;62088;50.240;2.696;2023-01-09T12:07:24;7.30;86.40
73777;DHT22;62088;50.240;2.696;2023-01-09T12:13:12;7.30;86.30
73777;DHT22;62088;50.240;2.696;2023-01-09T12:24:32;7.30;86.30
73777;DHT22;62088;50.240;2.696;2023-01-09T12:30:15;7.30;86.10
73777;DHT22;62088;50.240;2.696;2023-01-09T12:32:57;7.30;86.00
73777;DHT22;62088;50.240;2.696;2023-01-09T12:41:24;7.20;86.00
73777;DHT22;62088;50.240;2.696;2023-01-09T12:46:23;7.20;86.00
73777;DHT22;62088;50.240;2.696;2023-01-09T12:51:34;7.20;86.00
73777;DHT22;62088;50.240;2.696;2023-01-09T12:54:31;7.20;85.90
73777;DHT22;62088;50.240;2.696;2023-01-09T12:57:44;7.20;85.90
73777;DHT22;62088;50.240;2.696;2023-01-09T13:00:15;7.20;85.90
73777;DHT22;62088;50.240;2.696;2023-01-09T13:05:19;7.10;86.00
73777;DHT22;62088;50.240;2.696;2023-01-09T13:07:58;7.20;86.10
73777;DHT22;62088;50.240;2.696;2023-01-09T13:10:39;7.10;86.10
73777;DHT22;62088;50.240;2.696;2023-01-09T13:13:25;7.10;86.20
73777;DHT22;62088;50.240;2.696;2023-01-09T13:15:58;7.10;86.30
73777;DHT22;62088;50.240;2.696;2023-01-09T13:20:56;7.10;86.40
73777;DHT22;62088;50.240;2.696;2023-01-09T13:26:19;7.10;86.40
73777;DHT22;62088;50.240;2.696;2023-01-09T13:28:52;7.10;86.50
73777;DHT22;62088;50.240;2.696;2023-01-09T13:34:20;7.20;86.50
73777;DHT22;62088;50.240;2.696;2023-01-09T13:36:50;7.20;86.50
73777;DHT22;62088;50.240;2.696;2023-01-09T13:39:28;7.20;86.40
73777;DHT22;62088;50.240;2.696;2023-01-09T13:42:05;7.20;86.50
73777;DHT22;62088;50.240;2.696;2023-01-09T13:45:18;7.20;86.50
73777;DHT22;62088;50.240;2.696;2023-01-09T13:48:39;7.20;86.50
73777;DHT22;62088;50.240;2.696;2023-01-09T13:57:35;7.20;86.60
73777;DHT22;62088;50.240;2.696;2023-01-09T14:00:48;7.30;86.60
73777;DHT22;62088;50.240;2.696;2023-01-09T14:03:37;7.30;86.60
73777;DHT22;62088;50.240;2.696;2023-01-09T14:07:19;7.30;86.60
73777;DHT22;62088;50.240;2.696;2023-01-09T14:09:58;7.30;86.60
73777;DHT22;62088;50.240;2.696;2023-01-09T14:16:16;7.40;86.70
73777;DHT22;62088;50.240;2.696;2023-01-09T14:19:19;7.40;86.70
73777;DHT22;62088;50.240;2.696;2023-01-09T14:22:02;7.40;86.60
73777;DHT22;62088;50.240;2.696;2023-01-09T14:28:27;7.40;86.60
73777;DHT22;62088;50.240;2.696;2023-01-09T14:37:11;7.50;86.50
73777;DHT22;62088;50.240;2.696;2023-01-09T14:39:43;7.50;86.40
73777;DHT22;62088;50.240;2.696;2023-01-09T14:42:12;7.50;86.30
73777;DHT22;62088;50.240;2.696;2023-01-09T14:44:46;7.50;86.30
73777;DHT22;62088;50.240;2.696;2023-01-09T14:50:24;7.50;86.10
73777;DHT22;62088;50.240;2.696;2023-01-09T14:52:57;7.60;86.10
73777;DHT22;62088;50.240;2.696;2023-01-09T14:58:33;7.60;85.90
73777;DHT22;62088;50.240;2.696;2023-01-09T15:03:39;7.50;85.70
73777;DHT22;62088;50.240;2.696;2023-01-09T15:06:28;7.60;85.70
73777;DHT22;62088;50.240;2.696;2023-01-09T15:09:12;7.60;85.60
73777;DHT22;62088;50.240;2.696;2023-01-09T15:11:43;7.50;85.60
73777;DHT22;62088;50.240;2.696;2023-01-09T15:14:34;7.50;85.60
73777;DHT22;62088;50.240;2.696;2023-01-09T15:17:05;7.60;85.50
73777;DHT22;62088;50.240;2.696;2023-01-09T15:19:33;7.60;85.40
73777;DHT22;62088;50.240;2.696;2023-01-09T15:22:04;7.50;85.40
73777;DHT22;62088;50.240;2.696;2023-01-09T15:24:33;7.50;85.40
73777;DHT22;62088;50.240;2.696;2023-01-09T15:27:10;7.50;85.40
73777;DHT22;62088;50.240;2.696;2023-01-09T15:29:38;7.50;85.30
73777;DHT22;62088;50.240;2.696;2023-01-09T15:32:25;7.50;85.20
73777;DHT22;62088;50.240;2.696;2023-01-09T15:34:54;7.50;85.20
73777;DHT22;62088;50.240;2.696;2023-01-09T15:37:36;7.50;85.10
73777;DHT22;62088;50.240;2.696;2023-01-09T15:40:07;7.50;84.90
73777;DHT22;62088;50.240;2.696;2023-01-09T15:42:39;7.50;84.80
73777;DHT22;62088;50.240;2.696;2023-01-09T15:48:22;7.40;84.80
73777;DHT22;62088;50.240;2.696;2023-01-09T15:51:11;7.40;84.80
73777;DHT22;62088;50.240;2.696;2023-01-09T15:53:41;7.40;84.80
73777;DHT22;62088;50.240;2.696;2023-01-09T15:58:43;7.30;84.80
73777;DHT22;62088;50.240;2.696;2023-01-09T16:04:10;7.30;84.80
73777;DHT22;62088;50.240;2.696;2023-01-09T16:06:56;7.30;84.80
73777;DHT22;62088;50.240;2.696;2023-01-09T16:10:35;7.30;84.90
73777;DHT22;62088;50.240;2.696;2023-01-09T16:13:23;7.30;84.80
73777;DHT22;62088;50.240;2.696;2023-01-09T16:28:18;7.20;84.90
73777;DHT22;62088;50.240;2.696;2023-01-09T16:31:04;7.20;84.80
73777;DHT22;62088;50.240;2.696;2023-01-09T16:33:34;7.20;84.80
73777;DHT22;62088;50.240;2.696;2023-01-09T16:36:12;7.10;84.80
73777;DHT22;62088;50.240;2.696;2023-01-09T16:38:41;7.10;84.70
73777;DHT22;62088;50.240;2.696;2023-01-09T16:41:20;7.10;84.60
73777;DHT22;62088;50.240;2.696;2023-01-09T19:09:19;6.30;80.70
73777;DHT22;62088;50.240;2.696;2023-01-09T19:11:47;6.30;80.70
73777;DHT22;62088;50.240;2.696;2023-01-09T19:14:14;6.20;80.70
73777;DHT22;62088;50.240;2.696;2023-01-09T19:16:42;6.20;80.70
73777;DHT22;62088;50.240;2.696;2023-01-09T19:22:06;6.20;80.70
73777;DHT22;62088;50.240;2.696;2023-01-09T21:43:33;5.30;81.90
73777;DHT22;62088;50.240;2.696;2023-01-09T22:21:11;5.30;82.40
73777;DHT22;62088;50.240;2.696;2023-01-09T22:26:59;5.30;82.30
